sensor_id;sensor_type;location;lat;lon;timestamp;temperature;humidity
13694;DHT22;6919;52.344;14.518;2023-05-10T00:00:37;10.90;99.90
13694;DHT22;6919;52.344;14.518;2023-05-10T00:03:06;11.00;99.90
13694;DHT22;6919;52.344;14.518;2023-05-10T00:05:34;10.90;99.90
13694;DHT22;6919;52.344;14.518;2023-05-10T00:08:03;10.90;99.90
13694;DHT22;6919;52.344;14.518;2023-05-10T00:10:31;10.90;99.90
13694;DHT22;6919;52.344;14.518;2023-05-10T00:13:01;10.80;99.90
13694;DHT22;6919;52.344;14.518;2023-05-10T00:15:30;10.80;99.90
13694;DHT22;6919;52.344;14.518;2023-05-10T00:17:58;10.80;99.90
13694;DHT22;6919;52.344;14.518;2023-05-10T00:20:27;10.90;99.90
13694;DHT22;6919;52.344;14.518;2023-05-10T00:22:55;11.00;99.90
13694;DHT22;6919;52.344;14.518;2023-05-10T00:25:24;10.90;99.90
13694;DHT22;6919;52.344;14.518;2023-05-10T00:27:52;10.80;99.90
13694;DHT22;6919;52.344;14.518;2023-05-10T00:30:23;10.70;99.90
13694;DHT22;6919;52.344;14.518;2023-05-10T00:32:52;10.80;99.90
13694;DHT22;6919;52.344;14.518;2023-05-10T00:35:20;10.70;99.90
13694;DHT22;6919;52.344;14.518;2023-05-10T00:37:49;10.70;99.90
13694;DHT22;6919;52.344;14.518;2023-05-10T00:40:17;10.70;99.90
13694;DHT22;6919;52.344;14.518;2023-05-10T00:42:46;10.70;99.90
13694;DHT22;6919;52.344;14.518;2023-05-10T00:45:14;10.70;99.90
13694;DHT22;6919;52.344;14.518;2023-05-10T00:47:44;10.70;99.90
13694;DHT22;6919;52.344;14.518;2023-05-10T00:50:13;10.60;99.90
13694;DHT22;6919;52.344;14.518;2023-05-10T00:52:43;10.50;99.90
13694;DHT22;6919;52.344;14.518;2023-05-10T00:55:11;10.50;99.90
13694;DHT22;6919;52.344;14.518;2023-05-10T00:57:40;10.50;99.90
13694;DHT22;6919;52.344;14.518;2023-05-10T01:00:10;10.50;99.90
13694;DHT22;6919;52.344;14.518;2023-05-10T01:02:46;10.50;99.90
13694;DHT22;6919;52.344;14.518;2023-05-10T01:05:16;10.50;99.90
13694;DHT22;6919;52.344;14.518;2023-05-10T01:07:45;10.40;99.90
13694;DHT22;6919;52.344;14.518;2023-05-10T01:10:13;10.40;99.90
13694;DHT22;6919;52.344;14.518;2023-05-10T01:12:43;10.30;99.90
13694;DHT22;6919;52.344;14.518;2023-05-10T01:15:15;10.30;99.90
13694;DHT22;6919;52.344;14.518;2023-05-10T01:17:47;10.30;99.90
13694;DHT22;6919;52.344;14.518;2023-05-10T01:20:16;10.30;99.90
13694;DHT22;6919;52.344;14.518;2023-05-10T01:23:11;10.20;99.90
13694;DHT22;6919;52.344;14.518;2023-05-10T01:26:15;10.20;99.90
13694;DHT22;6919;52.344;14.518;2023-05-10T01:29:18;10.20;99.90
13694;DHT22;6919;52.344;14.518;2023-05-10T01:35:00;10.10;99.90
13694;DHT22;6919;52.344;14.518;2023-05-10T01:37:41;10.10;99.90
13694;DHT22;6919;52.344;14.518;2023-05-10T01:40:18;10.10;99.90
13694;DHT22;6919;52.344;14.518;2023-05-10T01:42:54;10.10;99.90
13694;DHT22;6919;52.344;14.518;2023-05-10T01:45:32;10.10;99.90
13694;DHT22;6919;52.344;14.518;2023-05-10T01:48:10;10.00;99.90
13694;DHT22;6919;52.344;14.518;2023-05-10T01:50:42;10.00;99.90
13694;DHT22;6919;52.344;14.518;2023-05-10T01:53:13;10.00;99.90
13694;DHT22;6919;52.344;14.518;2023-05-10T01:55:48;9.90;99.90
13694;DHT22;6919;52.344;14.518;2023-05-10T01:58:22;9.90;99.90
13694;DHT22;6919;52.344;14.518;2023-05-10T02:00:54;9.90;99.90
13694;DHT22;6919;52.344;14.518;2023-05-10T02:03:26;9.90;99.90
13694;DHT22;6919;52.344;14.518;2023-05-10T02:05:56;9.90;99.90
13694;DHT22;6919;52.344;14.518;2023-05-10T02:08:27;9.90;99.90
13694;DHT22;6919;52.344;14.518;2023-05-10T02:10:57;9.80;99.90
13694;DHT22;6919;52.344;14.518;2023-05-10T02:13:27;9.90;99.90
13694;DHT22;6919;52.344;14.518;2023-05-10T02:15:57;9.90;99.90
13694;DHT22;6919;52.344;14.518;2023-05-10T02:18:29;9.90;99.90
13694;DHT22;6919;52.344;14.518;2023-05-10T02:21:01;9.80;99.90
13694;DHT22;6919;52.344;14.518;2023-05-10T02:23:30;9.80;99.90
13694;DHT22;6919;52.344;14.518;2023-05-10T02:26:00;9.80;99.90
13694;DHT22;6919;52.344;14.518;2023-05-10T02:28:31;9.80;99.90
13694;DHT22;6919;52.344;14.518;2023-05-10T02:31:01;9.80;99.90
13694;DHT22;6919;52.344;14.518;2023-05-10T02:33:32;9.70;99.90
13694;DHT22;6919;52.344;14.518;2023-05-10T02:36:02;9.70;99.90
13694;DHT22;6919;52.344;14.518;2023-05-10T02:38:33;9.70;99.90
13694;DHT22;6919;52.344;14.518;2023-05-10T02:41:05;9.80;99.90
13694;DHT22;6919;52.344;14.518;2023-05-10T02:43:37;9.70;99.90
13694;DHT22;6919;52.344;14.518;2023-05-10T02:46:08;9.70;99.90
13694;DHT22;6919;52.344;14.518;2023-05-10T02:48:38;9.60;99.90
13694;DHT22;6919;52.344;14.518;2023-05-10T02:51:08;9.70;99.90
13694;DHT22;6919;52.344;14.518;2023-05-10T02:53:44;9.60;99.90
13694;DHT22;6919;52.344;14.518;2023-05-10T02:56:19;9.50;99.90
13694;DHT22;6919;52.344;14.518;2023-05-10T02:58:53;9.50;99.90
13694;DHT22;6919;52.344;14.518;2023-05-10T03:01:21;9.50;99.90
13694;DHT22;6919;52.344;14.518;2023-05-10T03:03:51;9.50;99.90
13694;DHT22;6919;52.344;14.518;2023-05-10T03:06:20;9.40;99.90
13694;DHT22;6919;52.344;14.518;2023-05-10T03:08:48;9.40;99.90
13694;DHT22;6919;52.344;14.518;2023-05-10T03:11:28;9.40;99.90
13694;DHT22;6919;52.344;14.518;2023-05-10T03:14:16;9.30;99.90
13694;DHT22;6919;52.344;14.518;2023-05-10T03:16:58;9.40;99.90
13694;DHT22;6919;52.344;14.518;2023-05-10T03:19:38;9.40;99.90
13694;DHT22;6919;52.344;14.518;2023-05-10T03:22:11;9.40;99.90
13694;DHT22;6919;52.344;14.518;2023-05-10T03:24:45;9.40;99.90
13694;DHT22;6919;52.344;14.518;2023-05-10T03:27:17;9.30;99.90
13694;DHT22;6919;52.344;14.518;2023-05-10T03:29:46;9.30;99.90
13694;DHT22;6919;52.344;14.518;2023-05-10T03:32:16;9.30;99.90
13694;DHT22;6919;52.344;14.518;2023-05-10T03:34:46;9.40;99.90
13694;DHT22;6919;52.344;14.518;2023-05-10T03:37:15;9.40;99.90
13694;DHT22;6919;52.344;14.518;2023-05-10T03:39:43;9.40;99.90
13694;DHT22;6919;52.344;14.518;2023-05-10T03:42:12;9.40;99.90
13694;DHT22;6919;52.344;14.518;2023-05-10T03:44:40;9.40;99.90
13694;DHT22;6919;52.344;14.518;2023-05-10T03:47:09;9.30;99.90
13694;DHT22;6919;52.344;14.518;2023-05-10T03:49:37;9.40;99.90
13694;DHT22;6919;52.344;14.518;2023-05-10T03:52:07;9.40;99.90
13694;DHT22;6919;52.344;14.518;2023-05-10T03:54:35;9.40;99.90
13694;DHT22;6919;52.344;14.518;2023-05-10T03:57:04;9.50;99.90
13694;DHT22;6919;52.344;14.518;2023-05-10T03:59:32;9.50;99.90
13694;DHT22;6919;52.344;14.518;2023-05-10T04:02:01;9.50;99.90
13694;DHT22;6919;52.344;14.518;2023-05-10T04:04:29;9.60;99.90
13694;DHT22;6919;52.344;14.518;2023-05-10T04:06:58;9.80;99.90
13694;DHT22;6919;52.344;14.518;2023-05-10T04:09:27;9.90;99.90
13694;DHT22;6919;52.344;14.518;2023-05-10T04:11:56;9.90;99.90
13694;DHT22;6919;52.344;14.518;2023-05-10T04:14:26;10.10;99.90
13694;DHT22;6919;52.344;14.518;2023-05-10T04:16:54;10.20;99.90
13694;DHT22;6919;52.344;14.518;2023-05-10T04:19:23;10.20;99.90
13694;DHT22;6919;52.344;14.518;2023-05-10T04:21:52;10.40;99.90
13694;DHT22;6919;52.344;14.518;2023-05-10T04:24:20;10.40;99.90
13694;DHT22;6919;52.344;14.518;2023-05-10T04:26:50;10.50;99.90
13694;DHT22;6919;52.344;14.518;2023-05-10T04:29:19;10.50;99.90
13694;DHT22;6919;52.344;14.518;2023-05-10T04:31:48;10.60;99.90
13694;DHT22;6919;52.344;14.518;2023-05-10T04:34:17;10.60;99.90
13694;DHT22;6919;52.344;14.518;2023-05-10T04:36:48;10.80;99.90
13694;DHT22;6919;52.344;14.518;2023-05-10T04:39:17;10.90;99.90
13694;DHT22;6919;52.344;14.518;2023-05-10T04:41:45;11.00;99.90
13694;DHT22;6919;52.344;14.518;2023-05-10T04:44:15;11.10;99.90
13694;DHT22;6919;52.344;14.518;2023-05-10T04:46:44;11.10;99.90
13694;DHT22;6919;52.344;14.518;2023-05-10T04:49:14;11.30;99.90
13694;DHT22;6919;52.344;14.518;2023-05-10T04:51:43;11.30;99.90
13694;DHT22;6919;52.344;14.518;2023-05-10T04:54:12;11.40;99.90
13694;DHT22;6919;52.344;14.518;2023-05-10T04:56:40;11.50;99.90
13694;DHT22;6919;52.344;14.518;2023-05-10T04:59:09;11.60;99.90
13694;DHT22;6919;52.344;14.518;2023-05-10T05:01:39;11.80;99.90
13694;DHT22;6919;52.344;14.518;2023-05-10T05:04:08;11.90;99.90
13694;DHT22;6919;52.344;14.518;2023-05-10T05:06:36;11.90;99.90
13694;DHT22;6919;52.344;14.518;2023-05-10T05:09:05;12.00;99.90
13694;DHT22;6919;52.344;14.518;2023-05-10T05:11:33;12.20;99.90
13694;DHT22;6919;52.344;14.518;2023-05-10T05:14:02;12.20;99.90
13694;DHT22;6919;52.344;14.518;2023-05-10T05:16:31;12.30;99.90
13694;DHT22;6919;52.344;14.518;2023-05-10T05:19:01;12.30;99.90
13694;DHT22;6919;52.344;14.518;2023-05-10T05:21:29;12.50;99.90
13694;DHT22;6919;52.344;14.518;2023-05-10T05:23:59;12.60;99.90
13694;DHT22;6919;52.344;14.518;2023-05-10T05:26:28;12.70;99.90
13694;DHT22;6919;52.344;14.518;2023-05-10T05:28:56;12.80;99.90
13694;DHT22;6919;52.344;14.518;2023-05-10T05:31:25;12.80;99.90
13694;DHT22;6919;52.344;14.518;2023-05-10T05:33:53;13.00;99.90
13694;DHT22;6919;52.344;14.518;2023-05-10T05:36:23;13.30;96.30
13694;DHT22;6919;52.344;14.518;2023-05-10T05:38:52;13.30;90.00
13694;DHT22;6919;52.344;14.518;2023-05-10T05:41:20;13.50;78.70
13694;DHT22;6919;52.344;14.518;2023-05-10T05:43:50;13.50;90.20
13694;DHT22;6919;52.344;14.518;2023-05-10T05:46:19;13.50;80.80
13694;DHT22;6919;52.344;14.518;2023-05-10T05:48:48;13.70;96.50
13694;DHT22;6919;52.344;14.518;2023-05-10T05:51:17;13.60;84.40
13694;DHT22;6919;52.344;14.518;2023-05-10T05:53:47;13.90;67.10
13694;DHT22;6919;52.344;14.518;2023-05-10T05:56:15;14.00;63.00
13694;DHT22;6919;52.344;14.518;2023-05-10T05:58:44;14.00;58.50
13694;DHT22;6919;52.344;14.518;2023-05-10T06:01:13;14.20;54.60
13694;DHT22;6919;52.344;14.518;2023-05-10T06:03:42;14.30;47.30
13694;DHT22;6919;52.344;14.518;2023-05-10T06:06:11;14.50;53.40
13694;DHT22;6919;52.344;14.518;2023-05-10T06:08:40;14.30;54.80
13694;DHT22;6919;52.344;14.518;2023-05-10T06:11:10;14.50;56.80
13694;DHT22;6919;52.344;14.518;2023-05-10T06:13:38;14.70;47.20
13694;DHT22;6919;52.344;14.518;2023-05-10T06:16:07;14.80;43.80
13694;DHT22;6919;52.344;14.518;2023-05-10T06:18:36;14.90;39.10
13694;DHT22;6919;52.344;14.518;2023-05-10T06:21:04;15.20;32.70
13694;DHT22;6919;52.344;14.518;2023-05-10T06:23:33;15.10;29.20
13694;DHT22;6919;52.344;14.518;2023-05-10T06:26:02;15.00;31.70
13694;DHT22;6919;52.344;14.518;2023-05-10T06:28:32;15.20;30.50
13694;DHT22;6919;52.344;14.518;2023-05-10T06:31:01;15.40;27.80
13694;DHT22;6919;52.344;14.518;2023-05-10T06:33:32;15.60;28.90
13694;DHT22;6919;52.344;14.518;2023-05-10T06:36:01;15.60;24.00
13694;DHT22;6919;52.344;14.518;2023-05-10T06:38:29;15.70;26.30
13694;DHT22;6919;52.344;14.518;2023-05-10T06:40:58;16.00;21.40
13694;DHT22;6919;52.344;14.518;2023-05-10T06:43:27;16.30;18.90
13694;DHT22;6919;52.344;14.518;2023-05-10T06:45:58;16.50;19.00
13694;DHT22;6919;52.344;14.518;2023-05-10T06:48:26;16.60;13.10
13694;DHT22;6919;52.344;14.518;2023-05-10T06:50:55;16.70;12.50
13694;DHT22;6919;52.344;14.518;2023-05-10T06:53:23;16.90;10.20
13694;DHT22;6919;52.344;14.518;2023-05-10T06:55:52;16.90;9.10
13694;DHT22;6919;52.344;14.518;2023-05-10T06:58:21;17.10;7.80
13694;DHT22;6919;52.344;14.518;2023-05-10T07:00:49;17.20;2.90
13694;DHT22;6919;52.344;14.518;2023-05-10T07:03:20;17.00;2.40
13694;DHT22;6919;52.344;14.518;2023-05-10T07:05:48;17.10;3.00
13694;DHT22;6919;52.344;14.518;2023-05-10T07:08:17;17.30;3.70
13694;DHT22;6919;52.344;14.518;2023-05-10T07:10:46;17.40;1.00
13694;DHT22;6919;52.344;14.518;2023-05-10T07:13:14;17.50;1.00
13694;DHT22;6919;52.344;14.518;2023-05-10T07:15:43;17.60;1.00
13694;DHT22;6919;52.344;14.518;2023-05-10T07:18:12;17.60;1.00
13694;DHT22;6919;52.344;14.518;2023-05-10T07:20:42;17.90;1.00
13694;DHT22;6919;52.344;14.518;2023-05-10T07:23:11;17.70;1.00
13694;DHT22;6919;52.344;14.518;2023-05-10T07:25:39;17.70;1.00
13694;DHT22;6919;52.344;14.518;2023-05-10T07:28:08;17.80;1.00
13694;DHT22;6919;52.344;14.518;2023-05-10T07:30:36;17.80;1.00
13694;DHT22;6919;52.344;14.518;2023-05-10T07:33:05;18.00;1.00
13694;DHT22;6919;52.344;14.518;2023-05-10T07:35:34;18.20;1.00
13694;DHT22;6919;52.344;14.518;2023-05-10T07:38:04;18.40;1.00
13694;DHT22;6919;52.344;14.518;2023-05-10T07:40:33;18.50;1.00
13694;DHT22;6919;52.344;14.518;2023-05-10T07:43:01;18.50;1.00
13694;DHT22;6919;52.344;14.518;2023-05-10T07:45:30;18.70;1.00
13694;DHT22;6919;52.344;14.518;2023-05-10T07:47:59;18.90;1.00
13694;DHT22;6919;52.344;14.518;2023-05-10T07:50:27;19.10;1.00
13694;DHT22;6919;52.344;14.518;2023-05-10T07:52:57;19.20;1.00
13694;DHT22;6919;52.344;14.518;2023-05-10T07:55:27;19.00;1.00
13694;DHT22;6919;52.344;14.518;2023-05-10T07:57:56;19.10;1.00
13694;DHT22;6919;52.344;14.518;2023-05-10T08:00:27;18.90;1.00
13694;DHT22;6919;52.344;14.518;2023-05-10T08:02:56;18.90;1.00
13694;DHT22;6919;52.344;14.518;2023-05-10T08:05:25;18.70;1.00
13694;DHT22;6919;52.344;14.518;2023-05-10T08:07:54;19.00;1.00
13694;DHT22;6919;52.344;14.518;2023-05-10T08:10:24;19.20;1.00
13694;DHT22;6919;52.344;14.518;2023-05-10T08:12:54;19.30;1.00
13694;DHT22;6919;52.344;14.518;2023-05-10T08:15:22;19.30;1.00
13694;DHT22;6919;52.344;14.518;2023-05-10T08:17:51;19.70;1.00
13694;DHT22;6919;52.344;14.518;2023-05-10T08:20:20;19.60;1.00
13694;DHT22;6919;52.344;14.518;2023-05-10T08:22:49;19.50;1.00
13694;DHT22;6919;52.344;14.518;2023-05-10T08:25:17;19.50;1.00
13694;DHT22;6919;52.344;14.518;2023-05-10T08:27:46;19.40;1.00
13694;DHT22;6919;52.344;14.518;2023-05-10T08:30:16;19.50;1.00
13694;DHT22;6919;52.344;14.518;2023-05-10T08:32:44;19.70;1.00
13694;DHT22;6919;52.344;14.518;2023-05-10T08:35:13;19.70;1.00
13694;DHT22;6919;52.344;14.518;2023-05-10T08:37:42;19.50;1.00
13694;DHT22;6919;52.344;14.518;2023-05-10T08:40:11;19.90;1.00
13694;DHT22;6919;52.344;14.518;2023-05-10T08:42:43;20.10;1.00
13694;DHT22;6919;52.344;14.518;2023-05-10T08:45:23;20.20;1.00
13694;DHT22;6919;52.344;14.518;2023-05-10T08:47:54;20.30;1.00
13694;DHT22;6919;52.344;14.518;2023-05-10T08:50:23;20.00;1.00
13694;DHT22;6919;52.344;14.518;2023-05-10T08:52:55;19.90;1.00
13694;DHT22;6919;52.344;14.518;2023-05-10T08:55:27;19.80;1.00
13694;DHT22;6919;52.344;14.518;2023-05-10T08:57:56;19.90;1.00
13694;DHT22;6919;52.344;14.518;2023-05-10T09:00:27;20.20;1.00
13694;DHT22;6919;52.344;14.518;2023-05-10T09:02:57;20.20;1.00
13694;DHT22;6919;52.344;14.518;2023-05-10T09:05:26;20.00;1.00
13694;DHT22;6919;52.344;14.518;2023-05-10T09:07:55;19.90;1.00
13694;DHT22;6919;52.344;14.518;2023-05-10T09:10:26;19.80;1.00
13694;DHT22;6919;52.344;14.518;2023-05-10T09:12:56;19.70;1.00
13694;DHT22;6919;52.344;14.518;2023-05-10T09:15:26;19.80;1.00
13694;DHT22;6919;52.344;14.518;2023-05-10T09:17:55;20.10;1.00
13694;DHT22;6919;52.344;14.518;2023-05-10T09:20:25;20.20;1.00
13694;DHT22;6919;52.344;14.518;2023-05-10T09:22:53;20.20;1.00
13694;DHT22;6919;52.344;14.518;2023-05-10T09:25:22;20.20;1.00
13694;DHT22;6919;52.344;14.518;2023-05-10T09:27:51;20.10;1.00
13694;DHT22;6919;52.344;14.518;2023-05-10T09:30:26;20.40;1.00
13694;DHT22;6919;52.344;14.518;2023-05-10T09:32:56;20.30;1.00
13694;DHT22;6919;52.344;14.518;2023-05-10T09:35:28;20.30;1.00
13694;DHT22;6919;52.344;14.518;2023-05-10T09:38:00;20.50;1.00
13694;DHT22;6919;52.344;14.518;2023-05-10T09:40:31;20.70;1.00
13694;DHT22;6919;52.344;14.518;2023-05-10T09:43:02;20.60;1.00
13694;DHT22;6919;52.344;14.518;2023-05-10T09:45:35;20.70;1.00
13694;DHT22;6919;52.344;14.518;2023-05-10T09:48:05;20.50;1.00
13694;DHT22;6919;52.344;14.518;2023-05-10T09:50:34;20.60;1.00
13694;DHT22;6919;52.344;14.518;2023-05-10T09:53:03;20.60;1.00
13694;DHT22;6919;52.344;14.518;2023-05-10T09:55:39;20.50;1.00
13694;DHT22;6919;52.344;14.518;2023-05-10T09:58:11;20.60;1.00
13694;DHT22;6919;52.344;14.518;2023-05-10T10:00:44;20.50;1.00
13694;DHT22;6919;52.344;14.518;2023-05-10T10:03:21;20.60;1.00
13694;DHT22;6919;52.344;14.518;2023-05-10T10:05:51;20.60;1.00
13694;DHT22;6919;52.344;14.518;2023-05-10T10:08:20;20.80;1.00
13694;DHT22;6919;52.344;14.518;2023-05-10T10:10:49;20.70;1.00
13694;DHT22;6919;52.344;14.518;2023-05-10T10:13:18;20.80;1.00
13694;DHT22;6919;52.344;14.518;2023-05-10T10:15:49;20.90;1.00
13694;DHT22;6919;52.344;14.518;2023-05-10T10:18:19;21.10;1.00
13694;DHT22;6919;52.344;14.518;2023-05-10T10:20:54;21.30;1.00
13694;DHT22;6919;52.344;14.518;2023-05-10T10:23:24;21.60;1.00
13694;DHT22;6919;52.344;14.518;2023-05-10T10:25:53;21.30;1.00
13694;DHT22;6919;52.344;14.518;2023-05-10T10:28:26;21.20;1.00
13694;DHT22;6919;52.344;14.518;2023-05-10T10:31:15;21.30;1.00
13694;DHT22;6919;52.344;14.518;2023-05-10T10:34:00;21.30;1.00
13694;DHT22;6919;52.344;14.518;2023-05-10T10:36:31;21.30;1.00
13694;DHT22;6919;52.344;14.518;2023-05-10T10:39:01;21.30;1.00
13694;DHT22;6919;52.344;14.518;2023-05-10T10:41:38;21.40;1.00
13694;DHT22;6919;52.344;14.518;2023-05-10T10:44:24;21.60;1.00
13694;DHT22;6919;52.344;14.518;2023-05-10T10:47:03;21.50;1.00
13694;DHT22;6919;52.344;14.518;2023-05-10T10:49:43;21.50;1.00
13694;DHT22;6919;52.344;14.518;2023-05-10T10:52:24;21.50;1.00
13694;DHT22;6919;52.344;14.518;2023-05-10T10:55:01;21.50;1.00
13694;DHT22;6919;52.344;14.518;2023-05-10T10:57:34;21.50;1.00
13694;DHT22;6919;52.344;14.518;2023-05-10T11:00:22;21.80;1.00
13694;DHT22;6919;52.344;14.518;2023-05-10T11:02:56;21.90;1.00
13694;DHT22;6919;52.344;14.518;2023-05-10T11:05:44;21.70;1.00
13694;DHT22;6919;52.344;14.518;2023-05-10T11:08:18;21.60;1.00
13694;DHT22;6919;52.344;14.518;2023-05-10T11:11:05;21.60;1.00
13694;DHT22;6919;52.344;14.518;2023-05-10T11:13:38;21.70;1.00
13694;DHT22;6919;52.344;14.518;2023-05-10T11:16:16;21.80;1.00
13694;DHT22;6919;52.344;14.518;2023-05-10T11:18:56;21.80;1.00
13694;DHT22;6919;52.344;14.518;2023-05-10T11:21:28;22.10;1.00
13694;DHT22;6919;52.344;14.518;2023-05-10T11:23:59;21.90;1.00
13694;DHT22;6919;52.344;14.518;2023-05-10T11:26:34;22.00;1.00
13694;DHT22;6919;52.344;14.518;2023-05-10T11:29:04;22.00;1.00
13694;DHT22;6919;52.344;14.518;2023-05-10T11:31:32;22.00;1.00
13694;DHT22;6919;52.344;14.518;2023-05-10T11:34:02;22.10;1.00
13694;DHT22;6919;52.344;14.518;2023-05-10T11:36:34;22.40;1.00
13694;DHT22;6919;52.344;14.518;2023-05-10T11:39:03;22.30;1.00
13694;DHT22;6919;52.344;14.518;2023-05-10T11:41:32;22.40;1.00
13694;DHT22;6919;52.344;14.518;2023-05-10T11:44:01;22.40;1.00
13694;DHT22;6919;52.344;14.518;2023-05-10T11:46:30;22.50;1.00
13694;DHT22;6919;52.344;14.518;2023-05-10T11:49:01;22.50;1.00
13694;DHT22;6919;52.344;14.518;2023-05-10T11:51:33;22.70;1.00
13694;DHT22;6919;52.344;14.518;2023-05-10T11:54:06;22.90;1.00
13694;DHT22;6919;52.344;14.518;2023-05-10T11:56:40;22.80;1.00
13694;DHT22;6919;52.344;14.518;2023-05-10T11:59:08;22.70;1.00
13694;DHT22;6919;52.344;14.518;2023-05-10T12:01:37;22.80;1.00
13694;DHT22;6919;52.344;14.518;2023-05-10T12:04:07;22.70;1.00
13694;DHT22;6919;52.344;14.518;2023-05-10T12:06:40;22.40;1.00
13694;DHT22;6919;52.344;14.518;2023-05-10T12:09:09;22.70;1.00
13694;DHT22;6919;52.344;14.518;2023-05-10T12:11:39;22.80;1.00
13694;DHT22;6919;52.344;14.518;2023-05-10T12:14:10;22.90;1.00
13694;DHT22;6919;52.344;14.518;2023-05-10T12:16:39;23.20;1.00
13694;DHT22;6919;52.344;14.518;2023-05-10T12:19:09;23.10;1.00
13694;DHT22;6919;52.344;14.518;2023-05-10T12:21:38;23.20;1.00
13694;DHT22;6919;52.344;14.518;2023-05-10T12:24:08;23.60;1.00
13694;DHT22;6919;52.344;14.518;2023-05-10T12:26:37;23.20;1.00
13694;DHT22;6919;52.344;14.518;2023-05-10T12:29:13;23.40;1.00
13694;DHT22;6919;52.344;14.518;2023-05-10T12:31:57;23.60;1.00
13694;DHT22;6919;52.344;14.518;2023-05-10T12:34:31;23.60;1.00
13694;DHT22;6919;52.344;14.518;2023-05-10T12:37:01;24.00;1.00
13694;DHT22;6919;52.344;14.518;2023-05-10T12:39:48;23.60;1.00
13694;DHT22;6919;52.344;14.518;2023-05-10T12:42:16;23.60;1.00
13694;DHT22;6919;52.344;14.518;2023-05-10T12:44:45;24.10;1.00
13694;DHT22;6919;52.344;14.518;2023-05-10T12:47:14;24.80;1.00
13694;DHT22;6919;52.344;14.518;2023-05-10T12:49:44;25.70;1.00
13694;DHT22;6919;52.344;14.518;2023-05-10T12:52:12;26.00;1.00
13694;DHT22;6919;52.344;14.518;2023-05-10T12:54:41;26.40;1.00
13694;DHT22;6919;52.344;14.518;2023-05-10T12:57:09;26.70;1.00
13694;DHT22;6919;52.344;14.518;2023-05-10T12:59:38;26.00;1.00
13694;DHT22;6919;52.344;14.518;2023-05-10T13:02:06;26.30;1.00
13694;DHT22;6919;52.344;14.518;2023-05-10T13:04:35;26.50;1.00
13694;DHT22;6919;52.344;14.518;2023-05-10T13:07:07;27.30;1.00
13694;DHT22;6919;52.344;14.518;2023-05-10T13:09:36;27.50;1.00
13694;DHT22;6919;52.344;14.518;2023-05-10T13:12:05;27.60;1.00
13694;DHT22;6919;52.344;14.518;2023-05-10T13:14:36;26.90;1.00
13694;DHT22;6919;52.344;14.518;2023-05-10T13:17:04;27.00;1.00
13694;DHT22;6919;52.344;14.518;2023-05-10T13:19:33;26.50;1.00
13694;DHT22;6919;52.344;14.518;2023-05-10T13:22:02;27.10;1.00
13694;DHT22;6919;52.344;14.518;2023-05-10T13:24:32;26.40;1.00
13694;DHT22;6919;52.344;14.518;2023-05-10T13:27:01;26.10;1.00
13694;DHT22;6919;52.344;14.518;2023-05-10T13:29:29;26.40;1.00
13694;DHT22;6919;52.344;14.518;2023-05-10T13:31:59;26.50;1.00
13694;DHT22;6919;52.344;14.518;2023-05-10T13:34:27;26.30;1.00
13694;DHT22;6919;52.344;14.518;2023-05-10T13:36:56;25.80;1.00
13694;DHT22;6919;52.344;14.518;2023-05-10T13:39:24;26.40;1.00
13694;DHT22;6919;52.344;14.518;2023-05-10T13:41:54;26.40;1.00
13694;DHT22;6919;52.344;14.518;2023-05-10T13:44:23;26.80;1.00
13694;DHT22;6919;52.344;14.518;2023-05-10T13:46:51;26.70;1.00
13694;DHT22;6919;52.344;14.518;2023-05-10T13:49:20;26.90;1.00
13694;DHT22;6919;52.344;14.518;2023-05-10T13:51:48;26.90;1.00
13694;DHT22;6919;52.344;14.518;2023-05-10T13:54:17;27.40;1.00
13694;DHT22;6919;52.344;14.518;2023-05-10T13:56:46;27.70;1.00
13694;DHT22;6919;52.344;14.518;2023-05-10T13:59:16;27.80;1.00
13694;DHT22;6919;52.344;14.518;2023-05-10T14:01:45;28.20;1.00
13694;DHT22;6919;52.344;14.518;2023-05-10T14:04:14;28.20;1.00
13694;DHT22;6919;52.344;14.518;2023-05-10T14:06:43;27.80;1.00
13694;DHT22;6919;52.344;14.518;2023-05-10T14:09:11;28.60;1.00
13694;DHT22;6919;52.344;14.518;2023-05-10T14:11:40;28.50;1.00
13694;DHT22;6919;52.344;14.518;2023-05-10T14:14:10;28.40;1.00
13694;DHT22;6919;52.344;14.518;2023-05-10T14:16:42;28.70;1.00
13694;DHT22;6919;52.344;14.518;2023-05-10T14:19:11;28.70;1.00
13694;DHT22;6919;52.344;14.518;2023-05-10T14:21:40;28.90;1.00
13694;DHT22;6919;52.344;14.518;2023-05-10T14:24:09;29.00;1.00
13694;DHT22;6919;52.344;14.518;2023-05-10T14:26:38;28.10;1.00
13694;DHT22;6919;52.344;14.518;2023-05-10T14:29:07;27.80;1.00
13694;DHT22;6919;52.344;14.518;2023-05-10T14:31:40;27.80;1.00
13694;DHT22;6919;52.344;14.518;2023-05-10T14:34:09;28.60;1.00
13694;DHT22;6919;52.344;14.518;2023-05-10T14:36:37;28.10;1.00
13694;DHT22;6919;52.344;14.518;2023-05-10T14:39:06;27.80;1.00
13694;DHT22;6919;52.344;14.518;2023-05-10T14:41:34;27.90;1.00
13694;DHT22;6919;52.344;14.518;2023-05-10T14:44:04;28.50;1.00
13694;DHT22;6919;52.344;14.518;2023-05-10T14:46:32;28.90;1.00
13694;DHT22;6919;52.344;14.518;2023-05-10T14:49:03;28.40;1.00
13694;DHT22;6919;52.344;14.518;2023-05-10T14:51:32;27.90;1.00
13694;DHT22;6919;52.344;14.518;2023-05-10T14:54:00;27.70;1.00
13694;DHT22;6919;52.344;14.518;2023-05-10T14:56:29;27.50;1.00
13694;DHT22;6919;52.344;14.518;2023-05-10T14:58:57;27.70;1.00
13694;DHT22;6919;52.344;14.518;2023-05-10T15:01:27;28.30;1.00
13694;DHT22;6919;52.344;14.518;2023-05-10T15:03:56;28.10;1.00
13694;DHT22;6919;52.344;14.518;2023-05-10T15:06:32;28.00;1.00
13694;DHT22;6919;52.344;14.518;2023-05-10T15:09:02;28.10;1.00
13694;DHT22;6919;52.344;14.518;2023-05-10T15:11:33;28.30;1.00
13694;DHT22;6919;52.344;14.518;2023-05-10T15:14:03;28.30;1.00
13694;DHT22;6919;52.344;14.518;2023-05-10T15:16:32;28.50;1.00
13694;DHT22;6919;52.344;14.518;2023-05-10T15:19:02;28.00;1.00
13694;DHT22;6919;52.344;14.518;2023-05-10T15:21:32;27.40;1.00
13694;DHT22;6919;52.344;14.518;2023-05-10T15:24:05;27.00;1.00
13694;DHT22;6919;52.344;14.518;2023-05-10T15:26:34;26.60;1.00
13694;DHT22;6919;52.344;14.518;2023-05-10T15:29:02;26.30;1.00
13694;DHT22;6919;52.344;14.518;2023-05-10T15:31:30;25.80;1.00
13694;DHT22;6919;52.344;14.518;2023-05-10T15:34:02;25.20;1.00
13694;DHT22;6919;52.344;14.518;2023-05-10T15:36:32;24.50;1.00
13694;DHT22;6919;52.344;14.518;2023-05-10T15:39:00;24.30;1.00
13694;DHT22;6919;52.344;14.518;2023-05-10T15:41:29;24.20;1.00
13694;DHT22;6919;52.344;14.518;2023-05-10T15:43:58;24.10;1.00
13694;DHT22;6919;52.344;14.518;2023-05-10T15:46:27;24.30;1.00
13694;DHT22;6919;52.344;14.518;2023-05-10T15:48:57;24.10;1.00
13694;DHT22;6919;52.344;14.518;2023-05-10T15:51:26;24.10;1.00
13694;DHT22;6919;52.344;14.518;2023-05-10T15:53:56;23.80;1.00
13694;DHT22;6919;52.344;14.518;2023-05-10T15:56:33;23.70;1.00
13694;DHT22;6919;52.344;14.518;2023-05-10T15:59:02;23.20;1.00
13694;DHT22;6919;52.344;14.518;2023-05-10T16:01:31;23.10;1.00
13694;DHT22;6919;52.344;14.518;2023-05-10T16:04:00;23.20;1.00
13694;DHT22;6919;52.344;14.518;2023-05-10T16:06:29;23.20;1.00